createdAt,value
2018-05-09T00:01:56.938Z,10.40
2018-05-09T00:04:24.836Z,10.40
2018-05-09T00:06:52.788Z,10.30
2018-05-09T00:09:20.665Z,10.30
2018-05-09T00:11:48.997Z,10.30
2018-05-09T00:14:17.853Z,10.30
2018-05-09T00:16:45.936Z,10.30
2018-05-09T00:19:14.623Z,10.20
2018-05-09T00:21:42.589Z,10.20
2018-05-09T00:24:10.508Z,10.20
2018-05-09T00:26:39.349Z,10.20
2018-05-09T00:29:07.354Z,10.20
2018-05-09T00:31:35.307Z,10.30
2018-05-09T00:34:04.005Z,10.10
2018-05-09T00:36:31.965Z,10.10
2018-05-09T00:38:59.867Z,10.00
2018-05-09T00:41:27.842Z,10.00
2018-05-09T00:43:55.737Z,10.00
2018-05-09T00:46:23.701Z,10.00
2018-05-09T00:48:51.719Z,10.00
2018-05-09T00:51:19.650Z,9.90
2018-05-09T00:53:47.557Z,9.90
2018-05-09T00:56:16.288Z,9.90
2018-05-09T00:58:44.181Z,9.90
2018-05-09T01:01:12.141Z,9.90
2018-05-09T01:03:40.043Z,9.80
2018-05-09T01:06:08.772Z,9.80
2018-05-09T01:08:36.693Z,9.80
2018-05-09T01:11:05.495Z,9.70
2018-05-09T01:13:34.163Z,9.80
2018-05-09T01:16:02.135Z,9.80
2018-05-09T01:18:30.823Z,9.70
2018-05-09T01:20:58.779Z,9.60
2018-05-09T01:23:26.774Z,9.60
2018-05-09T01:25:55.511Z,9.50
2018-05-09T01:28:23.406Z,9.50
2018-05-09T01:30:51.366Z,9.40
2018-05-09T01:33:19.275Z,9.40
2018-05-09T01:35:48.008Z,9.40
2018-05-09T01:38:15.909Z,9.40
2018-05-09T01:40:43.871Z,9.40
2018-05-09T01:43:11.768Z,9.40
2018-05-09T01:45:40.544Z,9.20
2018-05-09T01:48:08.445Z,9.20
2018-05-09T01:50:36.359Z,9.20
2018-05-09T01:53:04.371Z,9.20
2018-05-09T01:55:32.274Z,9.10
2018-05-09T01:58:01.048Z,9.20
2018-05-09T02:00:28.968Z,9.20
2018-05-09T02:02:56.939Z,9.20
2018-05-09T02:05:24.844Z,9.20
2018-05-09T02:07:52.794Z,9.10
2018-05-09T02:10:21.476Z,9.00
2018-05-09T02:12:49.421Z,8.90
2018-05-09T02:15:17.326Z,9.10
2018-05-09T02:17:46.051Z,9.00
2018-05-09T02:20:13.947Z,8.90
2018-05-09T02:22:41.902Z,9.00
2018-05-09T02:25:09.800Z,9.00
2018-05-09T02:27:59.349Z,9.10
2018-05-09T02:30:27.260Z,9.10
2018-05-09T02:32:55.993Z,9.00
2018-05-09T02:35:23.936Z,9.00
2018-05-09T02:37:52.704Z,9.00
2018-05-09T02:40:20.597Z,9.00
2018-05-09T02:42:48.561Z,9.00
2018-05-09T02:45:16.464Z,9.00
2018-05-09T02:47:44.430Z,9.00
2018-05-09T02:50:12.345Z,8.80
2018-05-09T02:52:40.301Z,8.80
2018-05-09T02:55:08.217Z,8.80
2018-05-09T02:57:36.178Z,8.70
2018-05-09T03:00:04.874Z,8.70
2018-05-09T03:02:32.820Z,8.70
2018-05-09T03:05:00.769Z,8.80
2018-05-09T03:07:28.727Z,8.70
2018-05-09T03:09:56.626Z,8.60
2018-05-09T03:12:24.607Z,8.50
2018-05-09T03:14:53.271Z,8.50
2018-05-09T03:17:21.226Z,8.50
2018-05-09T03:19:49.119Z,8.50
2018-05-09T03:22:17.077Z,8.50
2018-05-09T03:24:44.972Z,8.50
2018-05-09T03:27:13.703Z,8.40
2018-05-09T03:29:41.600Z,8.40
2018-05-09T03:32:09.583Z,8.40
2018-05-09T03:34:37.490Z,8.30
2018-05-09T03:37:05.443Z,8.30
2018-05-09T03:39:34.139Z,8.30
2018-05-09T03:42:02.483Z,8.30
2018-05-09T03:44:30.376Z,8.30
2018-05-09T03:46:59.126Z,8.30
2018-05-09T03:49:27.023Z,8.30
2018-05-09T03:51:55.743Z,8.30
2018-05-09T03:54:23.629Z,8.30
2018-05-09T03:56:51.579Z,8.30
2018-05-09T03:59:19.528Z,8.20
2018-05-09T04:02:00.034Z,8.30
2018-05-09T04:04:39.649Z,8.30
2018-05-09T04:07:19.365Z,8.30
2018-05-09T04:09:56.102Z,8.40
2018-05-09T04:12:24.051Z,8.30
2018-05-09T04:14:52.845Z,8.30
2018-05-09T04:17:20.810Z,8.30
2018-05-09T04:19:51.793Z,8.40
2018-05-09T04:22:24.607Z,8.40
2018-05-09T04:24:57.505Z,8.60
2018-05-09T04:27:25.600Z,8.60
2018-05-09T04:29:56.795Z,8.70
2018-05-09T04:32:28.351Z,8.70
2018-05-09T04:35:00.324Z,8.80
2018-05-09T04:37:32.382Z,8.80
2018-05-09T04:40:00.509Z,8.90
2018-05-09T04:42:28.467Z,8.90
2018-05-09T04:44:56.367Z,9.00
2018-05-09T04:47:24.341Z,9.20
2018-05-09T04:49:52.269Z,9.20
2018-05-09T04:52:20.209Z,9.30
2018-05-09T04:54:48.093Z,9.40
2018-05-09T04:57:16.810Z,9.40
2018-05-09T04:59:44.716Z,9.30
2018-05-09T05:02:12.654Z,9.30
2018-05-09T05:04:40.540Z,9.40
2018-05-09T05:07:08.642Z,9.70
2018-05-09T05:09:36.543Z,9.80
2018-05-09T05:12:04.500Z,9.90
2018-05-09T05:14:33.163Z,11.60
2018-05-09T05:17:01.112Z,11.60
2018-05-09T05:19:29.027Z,12.80
2018-05-09T05:21:56.978Z,14.00
2018-05-09T05:24:24.864Z,14.90
2018-05-09T05:26:53.579Z,16.00
2018-05-09T05:29:21.512Z,16.00
2018-05-09T05:31:50.223Z,18.30
2018-05-09T05:34:18.123Z,18.20
2018-05-09T05:36:46.083Z,18.90
2018-05-09T05:39:13.979Z,19.20
2018-05-09T05:41:41.880Z,19.80
2018-05-09T05:44:10.595Z,20.90
2018-05-09T05:46:38.483Z,20.90
2018-05-09T05:49:06.418Z,21.40
2018-05-09T05:51:34.333Z,21.80
2018-05-09T05:54:02.335Z,22.60
2018-05-09T05:56:30.236Z,23.00
2018-05-09T05:58:58.187Z,23.10
2018-05-09T06:01:26.852Z,23.50
2018-05-09T06:03:54.796Z,23.40
2018-05-09T06:06:22.725Z,23.60
2018-05-09T06:08:50.671Z,24.40
2018-05-09T06:11:18.568Z,25.00
2018-05-09T06:13:46.515Z,25.40
2018-05-09T06:16:15.247Z,25.80
2018-05-09T06:18:43.183Z,25.80
2018-05-09T06:21:11.966Z,26.30
2018-05-09T06:23:40.722Z,26.10
2018-05-09T06:26:08.622Z,26.10
2018-05-09T06:28:37.354Z,26.70
2018-05-09T06:31:05.276Z,26.60
2018-05-09T06:33:33.253Z,27.00
2018-05-09T06:36:01.979Z,28.30
2018-05-09T06:38:29.931Z,28.20
2018-05-09T06:40:57.822Z,28.50
2018-05-09T06:43:25.763Z,28.60
2018-05-09T06:45:53.646Z,28.30
2018-05-09T06:48:21.604Z,28.70
2018-05-09T06:50:49.500Z,29.10
2018-05-09T06:53:17.465Z,29.50
2018-05-09T06:55:45.380Z,29.30
2018-05-09T06:58:13.274Z,28.70
2018-05-09T07:00:42.032Z,29.90
2018-05-09T07:03:09.985Z,29.90
2018-05-09T07:05:37.937Z,28.70
2018-05-09T07:08:05.829Z,29.50
2018-05-09T07:10:33.785Z,29.60
2018-05-09T07:13:01.676Z,30.50
2018-05-09T07:15:29.622Z,30.80
2018-05-09T07:17:57.552Z,30.70
2018-05-09T07:20:25.494Z,29.50
2018-05-09T07:22:53.395Z,28.80
2018-05-09T07:25:21.329Z,28.60
2018-05-09T07:27:49.222Z,29.10
2018-05-09T07:30:17.933Z,30.80
2018-05-09T07:32:45.829Z,30.80
2018-05-09T07:35:13.774Z,31.60
2018-05-09T07:37:41.672Z,32.70
2018-05-09T07:40:09.618Z,33.20
2018-05-09T07:42:37.527Z,33.60
2018-05-09T07:45:05.487Z,33.60
2018-05-09T07:47:33.467Z,34.00
2018-05-09T07:50:01.394Z,34.00
2018-05-09T07:52:29.293Z,34.00
2018-05-09T07:54:57.245Z,34.70
2018-05-09T07:57:25.139Z,35.30
2018-05-09T07:59:53.084Z,33.10
2018-05-09T08:02:20.976Z,34.30
2018-05-09T08:04:48.926Z,35.20
2018-05-09T08:07:16.839Z,35.20
2018-05-09T08:09:45.577Z,36.10
2018-05-09T08:12:13.486Z,36.10
2018-05-09T08:14:41.386Z,35.90
2018-05-09T08:17:10.023Z,34.90
2018-05-09T08:19:40.369Z,35.20
2018-05-09T08:22:08.534Z,35.90
2018-05-09T08:24:40.007Z,35.80
2018-05-09T08:27:08.718Z,35.80
2018-05-09T08:29:36.614Z,35.80
2018-05-09T08:32:04.557Z,35.50
2018-05-09T08:34:32.458Z,35.60
2018-05-09T08:37:00.405Z,36.40
2018-05-09T08:39:28.407Z,36.10
2018-05-09T08:41:56.361Z,34.70
2018-05-09T08:44:24.268Z,32.50
2018-05-09T08:46:52.219Z,34.60
2018-05-09T08:49:20.183Z,34.80
2018-05-09T08:51:48.130Z,35.50
2018-05-09T08:54:16.029Z,36.20
2018-05-09T08:56:44.025Z,36.80
2018-05-09T08:59:12.689Z,38.20
2018-05-09T09:01:40.637Z,38.20
2018-05-09T09:04:08.533Z,38.50
2018-05-09T09:06:36.513Z,38.00
2018-05-09T09:09:04.503Z,37.60
2018-05-09T09:11:33.218Z,37.40
2018-05-09T09:14:01.115Z,37.40
2018-05-09T09:16:29.066Z,37.10
2018-05-09T09:18:56.971Z,38.00
2018-05-09T09:21:24.955Z,38.70
2018-05-09T09:23:53.614Z,38.30
2018-05-09T09:26:21.574Z,38.30
2018-05-09T09:28:49.552Z,38.10
2018-05-09T09:31:17.497Z,38.90
2018-05-09T09:33:45.412Z,38.40
2018-05-09T09:36:13.374Z,38.70
2018-05-09T09:38:41.273Z,38.90
2018-05-09T09:41:09.969Z,37.50
2018-05-09T09:43:37.866Z,37.40
2018-05-09T09:46:05.835Z,37.30
2018-05-09T09:48:33.717Z,37.20
2018-05-09T09:51:01.658Z,37.30
2018-05-09T09:53:29.542Z,37.80
2018-05-09T09:55:57.482Z,38.10
2018-05-09T09:58:25.376Z,37.70
2018-05-09T10:00:53.352Z,36.80
2018-05-09T10:03:21.247Z,36.70
2018-05-09T10:05:49.209Z,37.10
2018-05-09T10:08:17.100Z,37.30
2018-05-09T10:10:45.059Z,37.30
2018-05-09T10:13:13.004Z,36.80
2018-05-09T10:15:40.966Z,37.60
2018-05-09T10:18:08.864Z,36.90
2018-05-09T10:20:36.860Z,37.70
2018-05-09T10:23:05.520Z,37.70
2018-05-09T10:25:33.402Z,37.70
2018-05-09T10:28:01.349Z,37.50
2018-05-09T10:30:29.220Z,36.50
2018-05-09T10:32:57.311Z,36.20
2018-05-09T10:35:25.320Z,36.30
2018-05-09T10:37:53.573Z,36.30
2018-05-09T10:40:22.418Z,36.90
2018-05-09T10:42:51.407Z,36.90
2018-05-09T10:45:20.174Z,36.90
2018-05-09T10:47:48.105Z,36.70
2018-05-09T10:50:16.497Z,34.50
2018-05-09T10:52:45.253Z,34.60
2018-05-09T10:55:13.159Z,34.20
2018-05-09T10:57:41.862Z,34.70
2018-05-09T11:00:09.757Z,34.60
2018-05-09T11:02:37.698Z,35.80
2018-05-09T11:05:05.603Z,35.20
2018-05-09T11:07:33.540Z,34.10
2018-05-09T11:10:01.425Z,32.90
2018-05-09T11:12:29.354Z,31.70
2018-05-09T11:14:57.280Z,31.20
2018-05-09T11:17:25.238Z,31.40
2018-05-09T11:19:53.140Z,32.50
2018-05-09T11:22:21.744Z,31.10
2018-05-09T11:24:49.638Z,30.80
2018-05-09T11:27:20.892Z,31.00
2018-05-09T11:29:49.649Z,32.00
2018-05-09T11:32:17.892Z,31.90
2018-05-09T11:34:45.811Z,31.30
2018-05-09T11:37:14.527Z,30.60
2018-05-09T11:39:42.433Z,30.60
2018-05-09T11:42:10.382Z,30.40
2018-05-09T11:44:38.285Z,30.30
2018-05-09T11:47:06.231Z,30.10
2018-05-09T11:49:34.223Z,29.90
2018-05-09T11:52:02.189Z,29.40
2018-05-09T11:54:30.161Z,29.50
2018-05-09T11:56:58.118Z,29.30
2018-05-09T11:59:26.030Z,29.20
2018-05-09T12:01:54.050Z,29.10
2018-05-09T12:04:21.954Z,28.80
2018-05-09T12:06:50.670Z,27.70
2018-05-09T12:09:18.569Z,27.60
2018-05-09T12:11:46.522Z,27.30
2018-05-09T12:14:15.190Z,27.30
2018-05-09T12:16:43.148Z,27.30
2018-05-09T12:19:11.829Z,27.30
2018-05-09T12:21:40.541Z,27.30
2018-05-09T12:24:08.438Z,27.30
2018-05-09T12:26:36.395Z,27.40
2018-05-09T12:29:04.339Z,27.50
2018-05-09T12:31:32.290Z,27.50
2018-05-09T12:34:00.953Z,27.60
2018-05-09T12:36:28.898Z,27.60
2018-05-09T12:38:56.823Z,27.80
2018-05-09T12:41:26.367Z,28.20
2018-05-09T12:43:54.307Z,28.30
2018-05-09T12:46:22.959Z,28.10
2018-05-09T12:48:50.965Z,28.10
2018-05-09T12:51:22.185Z,28.30
2018-05-09T12:53:50.910Z,28.50
2018-05-09T12:56:18.811Z,28.50
2018-05-09T12:58:46.760Z,28.50
2018-05-09T13:01:15.428Z,28.60
2018-05-09T13:03:43.378Z,28.50
2018-05-09T13:06:12.101Z,28.60
2018-05-09T13:08:40.040Z,28.60
2018-05-09T13:11:08.709Z,30.40
2018-05-09T13:13:36.666Z,30.30
2018-05-09T13:16:04.573Z,31.60
2018-05-09T13:18:33.280Z,31.80
2018-05-09T13:21:01.193Z,31.80
2018-05-09T13:23:29.133Z,31.90
2018-05-09T13:25:57.297Z,31.80
2018-05-09T13:28:25.103Z,32.40
2018-05-09T13:30:53.008Z,31.90
2018-05-09T13:33:21.713Z,31.20
2018-05-09T13:35:49.604Z,31.20
2018-05-09T13:38:17.642Z,30.60
2018-05-09T13:40:45.537Z,29.70
2018-05-09T13:43:14.259Z,29.30
2018-05-09T13:45:42.166Z,29.30
2018-05-09T13:48:10.936Z,29.80
2018-05-09T13:50:38.838Z,29.70
2018-05-09T13:53:06.873Z,30.00
2018-05-09T13:55:35.577Z,29.60
2018-05-09T13:58:04.292Z,29.50
2018-05-09T14:00:32.198Z,29.50
2018-05-09T14:03:00.165Z,29.70
2018-05-09T14:05:28.081Z,29.60
2018-05-09T14:07:56.078Z,29.60
2018-05-09T14:10:23.977Z,29.70
2018-05-09T14:12:51.925Z,29.50
2018-05-09T14:15:19.817Z,29.30
2018-05-09T14:17:47.779Z,29.10
2018-05-09T14:20:15.670Z,28.90
2018-05-09T14:22:43.628Z,28.40
2018-05-09T14:25:11.625Z,27.50
2018-05-09T14:27:39.535Z,27.60
2018-05-09T14:30:07.426Z,27.80
2018-05-09T14:32:35.381Z,28.10
2018-05-09T14:35:03.285Z,28.30
2018-05-09T14:37:31.238Z,28.30
2018-05-09T14:39:59.142Z,28.30
2018-05-09T14:42:27.099Z,28.40
2018-05-09T14:44:54.998Z,28.30
2018-05-09T14:47:22.894Z,28.20
2018-05-09T14:49:50.845Z,28.20
2018-05-09T14:52:18.814Z,28.00
2018-05-09T14:54:46.895Z,28.10
2018-05-09T14:57:14.793Z,27.70
2018-05-09T14:59:44.058Z,27.80
2018-05-09T15:02:12.816Z,27.90
2018-05-09T15:04:41.544Z,27.70
2018-05-09T15:07:10.230Z,27.60
2018-05-09T15:09:38.216Z,27.60
2018-05-09T15:12:06.127Z,27.50
2018-05-09T15:14:34.084Z,27.30
2018-05-09T15:17:02.000Z,27.10
2018-05-09T15:19:29.973Z,27.00
2018-05-09T15:21:57.878Z,26.90
2018-05-09T15:24:25.834Z,27.00
2018-05-09T15:26:53.727Z,26.90
2018-05-09T15:29:21.708Z,27.00
2018-05-09T15:31:49.601Z,26.90
2018-05-09T15:34:19.453Z,26.60
2018-05-09T15:36:48.445Z,26.60
2018-05-09T15:39:17.763Z,26.40
2018-05-09T15:41:46.669Z,26.20
2018-05-09T15:44:14.853Z,26.20
2018-05-09T15:46:45.181Z,26.30
2018-05-09T15:49:13.294Z,26.20
2018-05-09T15:51:41.283Z,26.20
2018-05-09T15:54:09.276Z,26.20
2018-05-09T15:56:37.197Z,26.20
2018-05-09T15:59:05.192Z,26.20
2018-05-09T16:01:33.108Z,26.20
2018-05-09T16:04:02.956Z,26.20
2018-05-09T16:06:30.865Z,26.20
2018-05-09T16:08:58.814Z,26.20
2018-05-09T16:11:27.655Z,26.00
2018-05-09T16:13:55.598Z,26.00
2018-05-09T16:16:23.507Z,26.00
2018-05-09T16:18:53.775Z,25.90
2018-05-09T16:21:21.753Z,25.90
2018-05-09T16:23:50.474Z,25.90
2018-05-09T16:26:18.365Z,25.90
2018-05-09T16:28:46.337Z,25.80
2018-05-09T16:31:14.222Z,25.80
2018-05-09T16:33:42.160Z,25.70
2018-05-09T16:36:10.822Z,25.60
2018-05-09T16:38:38.769Z,25.60
2018-05-09T16:41:06.675Z,25.50
2018-05-09T16:43:34.609Z,25.60
2018-05-09T16:46:02.504Z,25.60
2018-05-09T16:48:30.438Z,25.70
2018-05-09T16:50:58.388Z,25.70
2018-05-09T16:53:26.375Z,25.70
2018-05-09T16:55:54.278Z,25.70
2018-05-09T16:58:22.234Z,25.70
2018-05-09T17:00:50.144Z,25.70
2018-05-09T17:03:18.177Z,25.70
2018-05-09T17:05:46.071Z,25.60
2018-05-09T17:08:13.962Z,25.40
2018-05-09T17:10:42.672Z,25.60
2018-05-09T17:13:10.606Z,25.50
2018-05-09T17:15:39.370Z,25.40
2018-05-09T17:18:07.271Z,25.40
2018-05-09T17:20:35.239Z,25.30
2018-05-09T17:23:03.909Z,25.20
2018-05-09T17:25:31.906Z,25.20
2018-05-09T17:28:00.562Z,25.00
2018-05-09T17:30:28.576Z,25.00
2018-05-09T17:32:57.305Z,24.90
2018-05-09T17:35:25.299Z,24.90
2018-05-09T17:37:53.200Z,24.80
2018-05-09T17:40:21.151Z,24.70
2018-05-09T17:42:49.813Z,24.40
2018-05-09T17:45:18.509Z,24.30
2018-05-09T17:47:46.399Z,24.30
2018-05-09T17:50:14.392Z,24.30
2018-05-09T17:52:42.288Z,24.20
2018-05-09T17:55:10.240Z,24.00
2018-05-09T17:57:38.134Z,24.00
2018-05-09T18:00:06.151Z,23.80
2018-05-09T18:02:34.825Z,23.50
2018-05-09T18:05:02.785Z,23.50
2018-05-09T18:07:30.703Z,23.30
2018-05-09T18:09:58.690Z,23.10
2018-05-09T18:12:26.693Z,22.90
2018-05-09T18:14:55.428Z,22.70
2018-05-09T18:17:23.321Z,22.70
2018-05-09T18:19:51.270Z,22.50
2018-05-09T18:22:19.184Z,22.30
2018-05-09T18:24:47.181Z,22.00
2018-05-09T18:27:15.851Z,21.40
2018-05-09T18:29:43.822Z,21.40
2018-05-09T18:32:11.718Z,21.30
2018-05-09T18:34:39.677Z,21.10
2018-05-09T18:37:07.639Z,20.90
2018-05-09T18:39:36.406Z,20.60
2018-05-09T18:42:04.314Z,20.50
2018-05-09T18:44:32.264Z,20.40
2018-05-09T18:47:00.175Z,20.20
2018-05-09T18:49:28.122Z,20.00
2018-05-09T18:51:56.790Z,19.70
2018-05-09T18:54:25.526Z,19.50
2018-05-09T18:56:53.429Z,19.50
2018-05-09T18:59:21.394Z,19.30
2018-05-09T19:01:49.301Z,19.10
2018-05-09T19:04:18.032Z,18.80
2018-05-09T19:06:45.962Z,18.80
2018-05-09T19:09:14.691Z,18.50
2018-05-09T19:11:42.593Z,18.50
2018-05-09T19:14:10.533Z,18.40
2018-05-09T19:16:38.431Z,18.20
2018-05-09T19:19:06.385Z,18.10
2018-05-09T19:21:34.294Z,17.90
2018-05-09T19:24:02.975Z,17.70
2018-05-09T19:26:31.698Z,17.50
2018-05-09T19:28:59.595Z,17.50
2018-05-09T19:31:27.537Z,17.40
2018-05-09T19:33:55.475Z,17.20
2018-05-09T19:36:24.192Z,17.10
2018-05-09T19:38:52.091Z,17.00
2018-05-09T19:41:20.901Z,16.80
2018-05-09T19:43:48.831Z,16.80
2018-05-09T19:46:16.785Z,16.80
2018-05-09T19:48:44.748Z,16.70
2018-05-09T19:51:12.765Z,16.60
2018-05-09T19:53:40.666Z,16.50
2018-05-09T19:56:09.389Z,16.30
2018-05-09T19:58:38.064Z,16.20
2018-05-09T20:01:06.043Z,16.20
2018-05-09T20:03:33.962Z,16.10
2018-05-09T20:06:01.917Z,16.00
2018-05-09T20:08:29.903Z,16.00
2018-05-09T20:10:57.834Z,15.90
2018-05-09T20:13:25.736Z,15.90
2018-05-09T20:15:53.745Z,15.80
2018-05-09T20:18:21.667Z,15.80
2018-05-09T20:20:49.635Z,15.70
2018-05-09T20:23:17.550Z,15.60
2018-05-09T20:25:45.531Z,15.50
2018-05-09T20:28:13.450Z,15.50
2018-05-09T20:30:46.906Z,15.40
2018-05-09T20:33:14.811Z,15.30
2018-05-09T20:35:42.777Z,15.30
2018-05-09T20:38:10.707Z,15.20
2018-05-09T20:40:38.682Z,15.10
2018-05-09T20:43:06.606Z,15.00
2018-05-09T20:45:34.576Z,14.90
2018-05-09T20:48:02.488Z,14.90
2018-05-09T20:50:30.477Z,14.90
2018-05-09T20:52:58.383Z,14.70
2018-05-09T20:55:29.270Z,14.70
2018-05-09T20:57:57.221Z,14.60
2018-05-09T21:00:25.182Z,14.50
2018-05-09T21:02:53.917Z,14.50
2018-05-09T21:05:21.879Z,14.40
2018-05-09T21:07:58.542Z,14.40
2018-05-09T21:10:26.671Z,14.30
2018-05-09T21:12:56.160Z,14.30
2018-05-09T21:15:24.981Z,14.20
2018-05-09T21:17:52.917Z,14.10
2018-05-09T21:20:20.886Z,14.20
2018-05-09T21:22:48.795Z,14.20
2018-05-09T21:25:17.565Z,14.00
2018-05-09T21:27:45.572Z,14.00
2018-05-09T21:30:16.790Z,14.00
2018-05-09T21:32:45.063Z,14.00
2018-05-09T21:35:13.105Z,13.80
2018-05-09T21:37:41.039Z,13.70
2018-05-09T21:40:09.010Z,13.60
2018-05-09T21:42:36.951Z,13.60
2018-05-09T21:45:05.714Z,13.50
2018-05-09T21:47:33.755Z,13.50
2018-05-09T21:50:01.777Z,13.50
2018-05-09T21:52:29.676Z,13.50
2018-05-09T21:54:57.915Z,13.50
2018-05-09T21:57:26.174Z,13.40
2018-05-09T21:59:54.090Z,13.40
2018-05-09T22:02:23.242Z,13.20
2018-05-09T22:04:51.941Z,13.20
2018-05-09T22:07:21.290Z,13.20
2018-05-09T22:09:49.197Z,13.20
2018-05-09T22:12:17.193Z,13.10
2018-05-09T22:14:45.098Z,13.00
2018-05-09T22:17:13.056Z,12.90
2018-05-09T22:19:41.724Z,13.00
2018-05-09T22:22:09.684Z,13.00
2018-05-09T22:24:37.606Z,13.00
2018-05-09T22:27:05.566Z,13.00
2018-05-09T22:29:33.556Z,12.90
2018-05-09T22:32:01.524Z,12.80
2018-05-09T22:34:29.421Z,12.80
2018-05-09T22:36:57.407Z,12.80
2018-05-09T22:39:26.091Z,12.60
2018-05-09T22:41:54.037Z,12.60
2018-05-09T22:44:21.937Z,12.70
2018-05-09T22:46:49.871Z,12.70
2018-05-09T22:49:17.858Z,12.70
2018-05-09T22:51:45.847Z,12.70
2018-05-09T22:54:13.778Z,12.70
2018-05-09T22:56:41.747Z,12.70
2018-05-09T22:59:09.661Z,12.70
2018-05-09T23:01:38.382Z,12.60
2018-05-09T23:04:06.285Z,12.60
2018-05-09T23:06:34.256Z,12.50
2018-05-09T23:09:02.164Z,12.50
2018-05-09T23:11:30.881Z,12.40
2018-05-09T23:13:58.779Z,12.30
2018-05-09T23:16:26.758Z,12.30
2018-05-09T23:18:54.725Z,12.20
2018-05-09T23:21:22.705Z,12.20
2018-05-09T23:23:50.634Z,12.10
2018-05-09T23:26:18.655Z,12.10
2018-05-09T23:28:46.586Z,12.10
2018-05-09T23:31:14.561Z,12.00
2018-05-09T23:33:42.493Z,12.00
2018-05-09T23:36:10.467Z,12.10
2018-05-09T23:38:38.381Z,12.10
2018-05-09T23:41:06.407Z,12.20
2018-05-09T23:43:34.316Z,12.20
2018-05-09T23:46:02.691Z,12.10
2018-05-09T23:48:31.215Z,12.10
2018-05-09T23:50:59.998Z,12.10
2018-05-09T23:53:28.412Z,12.10
2018-05-09T23:55:56.519Z,12.10
2018-05-09T23:58:24.613Z,12.10
